Appleton, Colorado
Current Conditions -  °F | °C
As of 2:53 AM on Saturday 01 Nov 2014 (Local Time) from KGJT Reporting Station
Light Rain Light Rain  
Wind Chill: 56°   Ceiling: Unl
Heat Index: 56°   Visibility: 10mi
Dew Point: 27°   Wind: 13mph
Humidity: 33%   Direction: 110°ESE
Pressure: 29.98"   Gusts: NA
Location:  39.1857°N, 108.6°W
Report Text: KGJT 010853Z AUTO 11011KT 10SM -RA CLR 13/M03 A2998 RMK AO2 RAB0759 SLP102 P0000 60000 T01331028 55004
Loading
Personal Weather Stations






























Interactive Weather Map New forecast layout! Learn more

10-Day Weather Forecast

Advertisements
Track Severe Weather on mobile